Mayport Ns (Adm David L. Mcdonald Field) Airport Mayport US
ICAO: KNRB
IATA: NRB
Category: Medium
Scheduled Services: No

Elevation: 15 ft
TransAlt. 18000 ft.

Airport Communications:
JACKSONVILLE APP/DEP:124.9
ATIS:26.86
GND:126.5
PTD:30.85
TWR:118.75

KNRB Zoom In..

If Map Doesn't Load, Click Here

Runways:

(A) RW 05 length 8001 ft width 200 ft
---- / hdg 46

(B) RW 23 length 8001 ft width 200 ft
---- / hdg 226

Location; KNRB
Day. 23 / Time. 07.52 Zulu
* Altimeter: 30.01
* Temperature: 26° c. 78.8°f.
* Wind from: 000° Speed 00 kn.
Dewpoint: 21° c.
Visibility: 10 Statute Miles.
Clouds: Few 3100 ft.

KNRB 230752Z AUTO 00000KT 10SM FEW031 26/21 A3001 RMK AO2 SLP160 T02560211


Wind - Calm.

 
 
jpsmedia.com for Web Design worldairports.se 2018   terms of use